createdAt,value
2017-10-15T00:01:59.436Z,24.57
2017-10-15T00:04:27.006Z,24.20
2017-10-15T00:06:55.377Z,25.40
2017-10-15T00:09:23.765Z,21.47
2017-10-15T00:11:52.129Z,27.67
2017-10-15T00:14:19.700Z,26.73
2017-10-15T00:16:48.225Z,26.50
2017-10-15T00:19:15.798Z,32.03
2017-10-15T00:21:43.387Z,27.87
2017-10-15T00:24:10.952Z,25.60
2017-10-15T00:26:38.546Z,25.87
2017-10-15T00:29:06.893Z,27.20
2017-10-15T00:31:34.488Z,27.53
2017-10-15T00:34:02.824Z,28.95
2017-10-15T00:36:30.712Z,34.83
2017-10-15T00:38:58.284Z,36.70
2017-10-15T00:41:26.972Z,32.60
2017-10-15T00:43:55.340Z,30.07
2017-10-15T00:46:22.912Z,31.20
2017-10-15T00:48:51.384Z,30.43
2017-10-15T00:51:18.956Z,30.43
2017-10-15T00:53:48.755Z,27.25
2017-10-15T00:56:16.325Z,32.10
2017-10-15T00:58:44.684Z,29.63
2017-10-15T01:01:13.076Z,31.67
2017-10-15T01:03:40.688Z,32.30
2017-10-15T01:06:08.358Z,31.27
2017-10-15T01:08:36.065Z,28.90
2017-10-15T01:11:03.647Z,33.97
2017-10-15T01:13:32.064Z,30.47
2017-10-15T01:16:00.136Z,34.10
2017-10-15T01:18:28.003Z,32.00
2017-10-15T01:20:55.857Z,34.83
2017-10-15T01:23:23.458Z,30.40
2017-10-15T01:25:51.032Z,33.33
2017-10-15T01:28:18.625Z,28.33
2017-10-15T01:30:48.587Z,35.63
2017-10-15T01:33:16.464Z,32.33
2017-10-15T01:35:44.028Z,33.30
2017-10-15T01:38:11.601Z,36.53
2017-10-15T01:40:39.980Z,34.37
2017-10-15T01:43:08.336Z,38.20
2017-10-15T01:45:35.908Z,33.65
2017-10-15T01:48:03.612Z,32.73
2017-10-15T01:50:31.237Z,32.83
2017-10-15T01:52:58.905Z,32.60
2017-10-15T01:55:26.528Z,40.43
2017-10-15T01:57:54.101Z,32.53
2017-10-15T02:00:21.700Z,34.70
2017-10-15T02:02:49.275Z,33.03
2017-10-15T02:05:17.737Z,32.97
2017-10-15T02:07:47.707Z,28.17
2017-10-15T02:10:15.304Z,38.67
2017-10-15T02:12:42.882Z,39.83
2017-10-15T02:15:11.276Z,32.60
2017-10-15T02:17:39.616Z,36.77
2017-10-15T02:20:07.190Z,39.10
2017-10-15T02:22:34.848Z,37.17
2017-10-15T02:25:02.420Z,32.77
2017-10-15T02:27:30.017Z,40.65
2017-10-15T02:29:57.632Z,44.17
2017-10-15T02:32:25.297Z,38.70
2017-10-15T02:34:52.874Z,40.97
2017-10-15T02:37:21.445Z,35.33
2017-10-15T02:39:49.027Z,40.53
2017-10-15T02:42:17.365Z,35.23
2017-10-15T02:44:45.884Z,39.30
2017-10-15T02:47:14.221Z,33.43
2017-10-15T02:49:41.821Z,32.47
2017-10-15T02:52:10.164Z,28.73
2017-10-15T02:54:37.757Z,31.33
2017-10-15T02:57:06.112Z,33.05
2017-10-15T02:59:33.713Z,30.30
2017-10-15T03:02:01.355Z,40.85
2017-10-15T03:04:29.746Z,43.87
2017-10-15T03:06:58.108Z,43.13
2017-10-15T03:09:27.184Z,43.37
2017-10-15T03:11:54.776Z,38.67
2017-10-15T03:14:23.140Z,32.63
2017-10-15T03:16:50.743Z,30.57
2017-10-15T03:19:18.316Z,32.50
2017-10-15T03:21:47.763Z,34.00
2017-10-15T03:24:15.336Z,31.87
2017-10-15T03:26:43.504Z,33.17
2017-10-15T03:29:11.072Z,30.60
2017-10-15T03:31:39.439Z,35.87
2017-10-15T03:34:07.032Z,25.53
2017-10-15T03:36:34.660Z,32.07
2017-10-15T03:39:02.324Z,34.08
2017-10-15T03:41:29.893Z,28.93
2017-10-15T03:43:57.480Z,33.90
2017-10-15T03:46:25.830Z,27.70
2017-10-15T03:48:53.428Z,31.30
2017-10-15T03:51:21.000Z,30.43
2017-10-15T03:53:49.540Z,28.93
2017-10-15T03:56:18.788Z,29.57
2017-10-15T03:58:47.620Z,25.87
2017-10-15T04:01:15.193Z,26.60
2017-10-15T04:03:43.551Z,31.13
2017-10-15T04:06:11.121Z,31.87
2017-10-15T04:08:38.968Z,29.07
2017-10-15T04:11:06.543Z,28.37
2017-10-15T04:13:34.137Z,33.27
2017-10-15T04:16:01.726Z,27.00
2017-10-15T04:18:29.316Z,27.90
2017-10-15T04:20:56.894Z,28.48
2017-10-15T04:23:24.500Z,21.23
2017-10-15T04:25:52.064Z,29.05
2017-10-15T04:28:19.679Z,21.97
2017-10-15T04:30:48.777Z,24.83
2017-10-15T04:33:16.438Z,23.70
2017-10-15T04:35:44.021Z,26.70
2017-10-15T04:38:12.376Z,28.90
2017-10-15T04:40:39.976Z,23.83
2017-10-15T04:43:07.568Z,23.20
2017-10-15T04:45:36.040Z,26.80
2017-10-15T04:48:03.651Z,25.75
2017-10-15T04:50:31.983Z,24.30
2017-10-15T04:52:59.551Z,27.60
2017-10-15T04:55:27.238Z,30.30
2017-10-15T04:57:54.808Z,33.10
2017-10-15T05:00:22.468Z,36.93
2017-10-15T05:02:50.064Z,37.13
2017-10-15T05:05:17.660Z,34.00
2017-10-15T05:07:46.155Z,35.43
2017-10-15T05:10:13.756Z,37.60
2017-10-15T05:12:42.096Z,36.43
2017-10-15T05:15:09.774Z,36.17
2017-10-15T05:17:37.441Z,36.00
2017-10-15T05:20:05.009Z,36.35
2017-10-15T05:22:33.460Z,37.17
2017-10-15T05:25:01.272Z,36.88
2017-10-15T05:27:29.715Z,34.03
2017-10-15T05:29:57.289Z,36.50
2017-10-15T05:32:25.960Z,41.50
2017-10-15T05:34:53.537Z,44.30
2017-10-15T05:37:21.107Z,38.13
2017-10-15T05:39:49.577Z,43.40
2017-10-15T05:42:17.148Z,47.43
2017-10-15T05:44:46.431Z,39.20
2017-10-15T05:47:14.005Z,46.92
2017-10-15T05:49:41.660Z,40.83
2017-10-15T05:52:09.228Z,46.00
2017-10-15T05:54:36.880Z,55.77
2017-10-15T05:57:04.453Z,38.50
2017-10-15T05:59:32.824Z,91.70
2017-10-15T06:02:00.488Z,104.80
2017-10-15T06:04:28.196Z,52.23
2017-10-15T06:06:56.096Z,56.83
2017-10-15T06:09:23.668Z,215.90
2017-10-15T06:11:51.349Z,291.17
2017-10-15T06:14:19.005Z,152.80
2017-10-15T06:16:48.818Z,61.00
2017-10-15T06:19:17.160Z,50.17
2017-10-15T06:21:44.768Z,67.87
2017-10-15T06:24:13.109Z,58.23
2017-10-15T06:26:40.676Z,27.93
2017-10-15T06:29:08.360Z,23.77
2017-10-15T06:31:35.923Z,18.50
2017-10-15T06:34:03.515Z,16.80
2017-10-15T06:36:31.084Z,16.93
2017-10-15T06:38:58.674Z,15.10
2017-10-15T06:41:26.256Z,17.40
2017-10-15T06:43:54.000Z,14.73
2017-10-15T06:46:21.568Z,12.77
2017-10-15T06:48:49.133Z,13.13
2017-10-15T06:51:16.734Z,18.60
2017-10-15T06:53:45.995Z,14.13
2017-10-15T06:56:13.584Z,11.27
2017-10-15T06:58:41.907Z,12.30
2017-10-15T07:01:09.516Z,11.50
2017-10-15T07:03:37.848Z,13.23
2017-10-15T07:06:05.419Z,12.50
2017-10-15T07:08:33.007Z,11.47
2017-10-15T07:11:00.572Z,16.58
2017-10-15T07:13:28.164Z,15.00
2017-10-15T07:15:55.736Z,11.32
2017-10-15T07:18:23.442Z,10.93
2017-10-15T07:20:51.808Z,13.23
2017-10-15T07:23:19.496Z,11.13
2017-10-15T07:25:49.620Z,10.60
2017-10-15T07:28:17.275Z,10.67
2017-10-15T07:30:44.839Z,12.10
2017-10-15T07:33:12.432Z,12.20
2017-10-15T07:35:40.001Z,14.77
2017-10-15T07:38:07.632Z,18.30
2017-10-15T07:40:35.283Z,14.30
2017-10-15T07:43:02.953Z,14.93
2017-10-15T07:45:31.296Z,14.73
2017-10-15T07:47:58.892Z,13.18
2017-10-15T07:50:27.225Z,16.40
2017-10-15T07:52:54.844Z,11.97
2017-10-15T07:55:23.199Z,12.37
2017-10-15T07:57:50.778Z,16.10
2017-10-15T08:00:18.364Z,14.73
2017-10-15T08:02:46.804Z,15.53
2017-10-15T08:05:14.400Z,18.50
2017-10-15T08:07:42.753Z,19.20
2017-10-15T08:10:10.352Z,18.03
2017-10-15T08:12:37.924Z,17.93
2017-10-15T08:15:05.520Z,13.32
2017-10-15T08:17:33.199Z,13.40
2017-10-15T08:20:01.572Z,13.17
2017-10-15T08:22:29.145Z,17.13
2017-10-15T08:24:56.732Z,12.40
2017-10-15T08:27:24.644Z,11.43
2017-10-15T08:29:52.436Z,12.73
2017-10-15T08:32:20.006Z,12.87
2017-10-15T08:34:49.563Z,9.63
2017-10-15T08:37:17.152Z,10.93
2017-10-15T08:39:47.149Z,12.63
2017-10-15T08:42:14.736Z,14.73
2017-10-15T08:44:42.316Z,13.40
2017-10-15T08:47:10.696Z,15.20
2017-10-15T08:49:39.069Z,13.43
2017-10-15T08:52:07.400Z,9.90
2017-10-15T08:54:34.983Z,13.43
2017-10-15T08:57:02.670Z,12.23
2017-10-15T08:59:31.040Z,11.17
2017-10-15T09:02:00.115Z,9.82
2017-10-15T09:04:27.700Z,10.40
2017-10-15T09:06:55.269Z,11.35
2017-10-15T09:09:23.625Z,9.50
2017-10-15T09:11:51.296Z,6.95
2017-10-15T09:14:19.270Z,9.37
2017-10-15T09:16:47.764Z,13.70
2017-10-15T09:19:16.102Z,13.03
2017-10-15T09:21:43.709Z,8.67
2017-10-15T09:24:12.037Z,8.30
2017-10-15T09:26:39.625Z,10.37
2017-10-15T09:29:07.292Z,9.57
2017-10-15T09:31:35.674Z,13.53
2017-10-15T09:34:03.249Z,7.75
2017-10-15T09:36:31.605Z,7.10
2017-10-15T09:38:59.175Z,9.05
2017-10-15T09:41:26.832Z,11.80
2017-10-15T09:43:55.215Z,8.82
2017-10-15T09:46:23.087Z,8.17
2017-10-15T09:48:50.657Z,9.83
2017-10-15T09:51:18.987Z,7.77
2017-10-15T09:53:47.745Z,10.13
2017-10-15T09:56:15.309Z,9.20
2017-10-15T09:58:42.892Z,8.63
2017-10-15T10:01:10.488Z,8.30
2017-10-15T10:03:38.152Z,8.00
2017-10-15T10:06:05.717Z,9.27
2017-10-15T10:08:33.304Z,9.53
2017-10-15T10:11:00.868Z,8.60
2017-10-15T10:13:28.696Z,8.30
2017-10-15T10:15:56.255Z,10.10
2017-10-15T10:18:23.827Z,8.67
2017-10-15T10:20:51.415Z,8.02
2017-10-15T10:23:19.041Z,7.30
2017-10-15T10:25:47.044Z,8.38
2017-10-15T10:28:15.399Z,9.53
2017-10-15T10:30:43.060Z,7.40
2017-10-15T10:33:10.627Z,6.53
2017-10-15T10:35:38.276Z,7.50
2017-10-15T10:38:06.613Z,7.27
2017-10-15T10:40:34.207Z,5.77
2017-10-15T10:43:01.777Z,9.25
2017-10-15T10:45:29.371Z,9.40
2017-10-15T10:47:57.008Z,8.35
2017-10-15T10:50:24.592Z,9.40
2017-10-15T10:52:52.925Z,9.88
2017-10-15T10:55:20.604Z,9.53
2017-10-15T10:57:48.904Z,8.27
2017-10-15T11:00:17.257Z,8.00
2017-10-15T11:02:44.820Z,7.63
2017-10-15T11:05:12.484Z,11.97
2017-10-15T11:07:40.055Z,6.63
2017-10-15T11:10:07.649Z,7.50
2017-10-15T11:12:35.222Z,7.70
2017-10-15T11:15:02.913Z,7.97
2017-10-15T11:17:30.477Z,8.97
2017-10-15T11:19:58.049Z,6.63
2017-10-15T11:22:25.716Z,7.97
2017-10-15T11:24:53.378Z,10.18
2017-10-15T11:27:21.037Z,7.07
2017-10-15T11:29:48.924Z,8.73
2017-10-15T11:32:17.400Z,7.10
2017-10-15T11:34:46.657Z,9.83
2017-10-15T11:37:14.258Z,5.63
2017-10-15T11:39:42.616Z,6.60
2017-10-15T11:42:10.180Z,8.67
2017-10-15T11:44:37.849Z,6.73
2017-10-15T11:47:05.418Z,7.05
2017-10-15T11:49:33.004Z,6.07
2017-10-15T11:52:00.572Z,6.78
2017-10-15T11:54:28.157Z,6.00
2017-10-15T11:56:55.726Z,4.30
2017-10-15T11:59:23.409Z,6.87
2017-10-15T12:01:51.076Z,3.50
2017-10-15T12:04:18.744Z,7.77
2017-10-15T12:06:47.977Z,5.07
2017-10-15T12:09:15.604Z,4.23
2017-10-15T12:11:44.696Z,6.23
2017-10-15T12:14:13.004Z,9.43
2017-10-15T12:16:41.561Z,8.23
2017-10-15T12:19:09.135Z,6.03
2017-10-15T12:21:37.468Z,4.90
2017-10-15T12:24:05.169Z,8.57
2017-10-15T12:26:32.729Z,5.20
2017-10-15T12:29:01.108Z,3.70
2017-10-15T12:31:29.484Z,3.83
2017-10-15T12:33:57.145Z,6.00
2017-10-15T12:36:24.712Z,6.27
2017-10-15T12:38:52.300Z,5.90
2017-10-15T12:41:19.869Z,4.95
2017-10-15T12:43:49.057Z,3.65
2017-10-15T12:46:16.621Z,6.10
2017-10-15T12:48:44.248Z,3.97
2017-10-15T12:51:12.628Z,3.33
2017-10-15T12:53:41.004Z,3.33
2017-10-15T12:56:08.569Z,4.93
2017-10-15T12:58:36.329Z,4.27
2017-10-15T13:01:03.912Z,11.43
2017-10-15T13:03:32.239Z,6.13
2017-10-15T13:05:59.824Z,6.57
2017-10-15T13:08:27.496Z,3.63
2017-10-15T13:10:56.593Z,5.22
2017-10-15T13:13:24.156Z,4.03
2017-10-15T13:15:52.533Z,3.17
2017-10-15T13:18:20.100Z,3.70
2017-10-15T13:20:49.167Z,4.97
2017-10-15T13:23:16.733Z,4.67
2017-10-15T13:25:44.292Z,3.77
2017-10-15T13:28:11.880Z,6.30
2017-10-15T13:30:39.529Z,2.90
2017-10-15T13:33:07.880Z,3.47
2017-10-15T13:35:35.468Z,2.87
2017-10-15T13:38:03.053Z,5.00
2017-10-15T13:40:31.388Z,8.97
2017-10-15T13:42:58.976Z,4.80
2017-10-15T13:45:26.536Z,6.57
2017-10-15T13:47:54.149Z,4.60
2017-10-15T13:50:21.724Z,13.17
2017-10-15T13:52:49.313Z,4.67
2017-10-15T13:55:17.076Z,5.03
2017-10-15T13:57:44.636Z,4.70
2017-10-15T14:00:12.484Z,6.10
2017-10-15T14:02:40.073Z,3.63
2017-10-15T14:05:07.632Z,4.97
2017-10-15T14:07:35.988Z,4.77
2017-10-15T14:10:03.568Z,4.22
2017-10-15T14:12:31.232Z,6.80
2017-10-15T14:14:58.888Z,5.50
2017-10-15T14:17:26.479Z,4.80
2017-10-15T14:19:54.816Z,4.50
2017-10-15T14:22:22.404Z,6.90
2017-10-15T14:24:50.737Z,4.03
2017-10-15T14:27:18.324Z,6.27
2017-10-15T14:29:47.769Z,4.85
2017-10-15T14:32:15.504Z,5.20
2017-10-15T14:34:43.068Z,6.30
2017-10-15T14:37:10.627Z,7.90
2017-10-15T14:39:38.220Z,6.00
2017-10-15T14:42:05.814Z,4.57
2017-10-15T14:44:33.407Z,8.10
2017-10-15T14:47:01.748Z,6.20
2017-10-15T14:49:29.733Z,4.50
2017-10-15T14:51:57.300Z,7.90
2017-10-15T14:54:24.884Z,7.90
2017-10-15T14:56:52.444Z,6.40
2017-10-15T14:59:20.200Z,6.50
2017-10-15T15:01:48.757Z,6.65
2017-10-15T15:04:16.325Z,6.50
2017-10-15T15:06:43.911Z,5.20
2017-10-15T15:09:12.244Z,7.20
2017-10-15T15:11:39.833Z,4.90
2017-10-15T15:14:08.041Z,9.00
2017-10-15T15:16:36.400Z,5.90
2017-10-15T15:19:03.978Z,6.22
2017-10-15T15:21:32.436Z,9.27
2017-10-15T15:24:00.236Z,6.50
2017-10-15T15:26:27.820Z,5.53
2017-10-15T15:28:55.389Z,6.10
2017-10-15T15:31:23.128Z,5.53
2017-10-15T15:33:50.757Z,9.30
2017-10-15T15:36:18.319Z,6.20
2017-10-15T15:38:47.199Z,5.45
2017-10-15T15:41:14.756Z,5.83
2017-10-15T15:43:42.320Z,6.00
2017-10-15T15:46:09.912Z,6.83
2017-10-15T15:48:38.235Z,7.47
2017-10-15T15:51:05.820Z,4.85
2017-10-15T15:53:34.207Z,8.83
2017-10-15T15:56:02.579Z,6.57
2017-10-15T15:58:30.167Z,6.90
2017-10-15T16:00:58.496Z,6.07
2017-10-15T16:03:26.080Z,4.23
2017-10-15T16:05:53.645Z,4.80
2017-10-15T16:08:21.996Z,7.50
2017-10-15T16:10:49.562Z,6.13
2017-10-15T16:13:17.149Z,5.80
2017-10-15T16:15:44.717Z,12.80
2017-10-15T16:18:13.048Z,4.40
2017-10-15T16:20:40.646Z,6.87
2017-10-15T16:23:08.240Z,7.63
2017-10-15T16:25:35.868Z,7.90
2017-10-15T16:28:04.286Z,5.70
2017-10-15T16:30:31.855Z,5.70
2017-10-15T16:32:59.484Z,9.93
2017-10-15T16:35:27.839Z,6.97
2017-10-15T16:37:55.406Z,7.00
2017-10-15T16:40:23.069Z,6.60
2017-10-15T16:42:50.640Z,7.00
2017-10-15T16:45:18.497Z,10.57
2017-10-15T16:47:47.880Z,6.70
2017-10-15T16:50:15.441Z,6.27
2017-10-15T16:52:43.028Z,5.97
2017-10-15T16:55:10.605Z,7.80
2017-10-15T16:57:38.960Z,18.50
2017-10-15T17:00:06.533Z,11.53
2017-10-15T17:02:34.888Z,10.30
2017-10-15T17:05:02.574Z,10.77
2017-10-15T17:07:30.932Z,8.30
2017-10-15T17:09:58.496Z,6.62
2017-10-15T17:12:26.080Z,9.23
2017-10-15T17:14:54.411Z,7.00
2017-10-15T17:17:21.997Z,8.13
2017-10-15T17:19:49.563Z,9.50
2017-10-15T17:22:17.328Z,6.40
2017-10-15T17:24:44.888Z,7.83
2017-10-15T17:27:12.551Z,8.47
2017-10-15T17:29:40.131Z,8.13
2017-10-15T17:32:08.479Z,9.50
2017-10-15T17:34:36.063Z,8.50
2017-10-15T17:37:04.404Z,9.07
2017-10-15T17:39:32.097Z,9.18
2017-10-15T17:41:59.661Z,6.77
2017-10-15T17:44:28.032Z,7.53
2017-10-15T17:46:55.627Z,6.10
2017-10-15T17:49:23.188Z,8.57
2017-10-15T17:51:50.878Z,7.87
2017-10-15T17:54:18.476Z,6.30
2017-10-15T17:56:47.104Z,12.57
2017-10-15T17:59:14.668Z,6.80
2017-10-15T18:01:42.256Z,7.53
2017-10-15T18:04:09.817Z,9.40
2017-10-15T18:06:37.421Z,5.73
2017-10-15T18:09:05.753Z,7.47
2017-10-15T18:11:33.353Z,7.37
2017-10-15T18:14:00.915Z,9.05
2017-10-15T18:16:28.569Z,9.60
2017-10-15T18:18:56.164Z,13.00
2017-10-15T18:21:23.729Z,11.53
2017-10-15T18:23:51.321Z,13.90
2017-10-15T18:26:18.884Z,11.05
2017-10-15T18:28:47.699Z,10.93
2017-10-15T18:31:15.262Z,8.20
2017-10-15T18:33:43.806Z,7.70
2017-10-15T18:36:11.372Z,13.40
2017-10-15T18:38:38.947Z,10.77
2017-10-15T18:41:06.532Z,8.03
2017-10-15T18:43:34.100Z,11.20
2017-10-15T18:46:02.455Z,11.20
2017-10-15T18:48:30.021Z,9.67
2017-10-15T18:50:57.617Z,8.60
2017-10-15T18:53:25.960Z,8.43
2017-10-15T18:55:53.552Z,8.77
2017-10-15T18:58:21.910Z,8.17
2017-10-15T19:00:49.500Z,7.70
2017-10-15T19:03:17.839Z,10.43
2017-10-15T19:05:46.120Z,8.60
2017-10-15T19:08:14.072Z,9.40
2017-10-15T19:10:41.650Z,8.90
2017-10-15T19:13:09.500Z,11.20
2017-10-15T19:15:37.068Z,6.73
2017-10-15T19:18:04.656Z,10.95
2017-10-15T19:20:32.991Z,13.10
2017-10-15T19:23:00.605Z,11.90
2017-10-15T19:25:28.955Z,10.00
2017-10-15T19:27:56.521Z,10.05
2017-10-15T19:30:24.107Z,14.40
2017-10-15T19:32:52.436Z,12.53
2017-10-15T19:35:20.224Z,15.97
2017-10-15T19:37:49.545Z,22.17
2017-10-15T19:40:17.884Z,15.97
2017-10-15T19:42:46.888Z,17.52
2017-10-15T19:45:14.460Z,18.47
2017-10-15T19:47:43.643Z,13.23
2017-10-15T19:50:11.221Z,13.10
2017-10-15T19:52:38.851Z,23.63
2017-10-15T19:55:06.549Z,15.77
2017-10-15T19:57:34.120Z,17.67
2017-10-15T20:00:02.484Z,15.85
2017-10-15T20:02:30.984Z,12.60
2017-10-15T20:04:59.348Z,9.73
2017-10-15T20:07:27.005Z,13.50
2017-10-15T20:09:54.596Z,17.27
2017-10-15T20:12:22.933Z,10.80
2017-10-15T20:14:50.524Z,16.90
2017-10-15T20:17:18.889Z,16.40
2017-10-15T20:19:48.588Z,11.45
2017-10-15T20:22:16.264Z,10.93
2017-10-15T20:24:43.861Z,19.87
2017-10-15T20:27:11.424Z,13.50
2017-10-15T20:29:39.032Z,14.47
2017-10-15T20:32:06.610Z,14.03
2017-10-15T20:34:34.976Z,13.23
2017-10-15T20:37:02.573Z,10.53
2017-10-15T20:39:30.921Z,13.33
2017-10-15T20:41:58.517Z,15.23
2017-10-15T20:44:26.089Z,13.23
2017-10-15T20:46:53.676Z,12.07
2017-10-15T20:49:21.249Z,16.17
2017-10-15T20:51:49.107Z,15.00
2017-10-15T20:54:16.798Z,21.37
2017-10-15T20:56:44.460Z,17.40
2017-10-15T20:59:12.030Z,14.63
2017-10-15T21:01:40.595Z,17.77
2017-10-15T21:04:08.169Z,19.60
2017-10-15T21:06:35.736Z,14.97
2017-10-15T21:09:04.104Z,15.60
2017-10-15T21:11:32.437Z,14.40
2017-10-15T21:14:00.237Z,16.13
2017-10-15T21:16:27.805Z,14.52
2017-10-15T21:18:55.370Z,19.83
2017-10-15T21:21:22.968Z,19.67
2017-10-15T21:23:50.539Z,18.83
2017-10-15T21:26:18.130Z,19.50
2017-10-15T21:28:47.832Z,18.40
2017-10-15T21:31:15.419Z,22.53
2017-10-15T21:33:42.985Z,21.33
2017-10-15T21:36:12.088Z,21.90
2017-10-15T21:38:39.744Z,24.27
2017-10-15T21:41:07.409Z,21.00
2017-10-15T21:43:34.975Z,21.30
2017-10-15T21:46:03.337Z,20.60
2017-10-15T21:48:31.010Z,24.43
2017-10-15T21:50:58.673Z,25.27
2017-10-15T21:53:26.246Z,20.23
2017-10-15T21:55:54.604Z,23.05
2017-10-15T21:58:22.272Z,22.53
2017-10-15T22:00:50.661Z,23.53
2017-10-15T22:03:18.233Z,19.40
2017-10-15T22:05:46.788Z,17.95
2017-10-15T22:08:14.383Z,20.20
2017-10-15T22:10:41.981Z,21.47
2017-10-15T22:13:09.553Z,21.27
2017-10-15T22:15:37.144Z,19.20
2017-10-15T22:18:05.489Z,24.80
2017-10-15T22:23:38.712Z,22.03
2017-10-15T22:26:06.305Z,25.40
2017-10-15T22:28:34.636Z,23.77
2017-10-15T22:31:02.229Z,24.90
2017-10-15T22:33:29.796Z,27.97
2017-10-15T22:35:57.388Z,24.92
2017-10-15T22:38:24.956Z,22.27
2017-10-15T22:40:52.555Z,25.05
2017-10-15T22:43:20.124Z,19.87
2017-10-15T22:45:48.823Z,23.50
2017-10-15T22:48:16.487Z,24.13
2017-10-15T22:50:44.080Z,29.17
2017-10-15T22:53:11.708Z,21.70
2017-10-15T22:55:39.305Z,24.97
2017-10-15T22:58:06.872Z,26.93
2017-10-15T23:00:34.460Z,28.27
2017-10-15T23:03:02.270Z,25.80
2017-10-15T23:05:30.835Z,28.80
2017-10-15T23:07:58.404Z,33.80
2017-10-15T23:10:25.976Z,35.93
2017-10-15T23:12:54.447Z,34.82
2017-10-15T23:15:22.016Z,30.37
2017-10-15T23:17:50.380Z,33.60
2017-10-15T23:20:17.948Z,34.17
2017-10-15T23:22:48.048Z,42.30
2017-10-15T23:25:15.628Z,31.60
2017-10-15T23:27:43.961Z,30.47
2017-10-15T23:30:11.557Z,33.00
2017-10-15T23:32:39.120Z,31.20
2017-10-15T23:35:06.717Z,33.53
2017-10-15T23:37:34.285Z,37.73
2017-10-15T23:40:01.883Z,32.80
2017-10-15T23:42:29.477Z,38.60
2017-10-15T23:44:57.048Z,38.67
2017-10-15T23:47:25.413Z,26.97
2017-10-15T23:49:52.985Z,31.90
2017-10-15T23:52:21.344Z,33.40
2017-10-15T23:54:48.940Z,29.00
2017-10-15T23:57:16.508Z,31.60
2017-10-15T23:59:44.136Z,33.00
